Time;durP1;ratioP1;P1;durP2;ratioP2;P2;SDS_P1;SDS_P2;PMS_P1;PMS_P2;Temp;Humidity;BMP_temperature;BMP_pressure;BME280_temperature;BME280_humidity;BME280_pressure;Samples;Min_cycle;Max_cycle;Signal;HPM_P1;HPM_P2
2023/12/07 00:01:43;;;;;;;50.10;29.40;;;;;;;5.77;66.90;93487.09;4875032;29;20044;-76
2023/12/07 00:04:08;;;;;;;50.55;30.92;;;;;;;5.85;66.39;93489.84;4868122;29;21121;-76
2023/12/07 00:06:34;;;;;;;54.78;30.48;;;;;;;5.88;66.46;93497.19;4877819;29;20037;-77
2023/12/07 00:09:01;;;;;;;56.47;33.05;;;;;;;5.93;66.31;93489.16;4867512;29;20484;-77
2023/12/07 00:11:26;;;;;;;53.30;30.35;;;;;;;5.89;66.00;93488.19;4877581;29;20132;-76
2023/12/07 00:13:52;;;;;;;48.70;29.13;;;;;;;5.97;65.98;93495.44;4878313;29;20449;-76
2023/12/07 00:16:17;;;;;;;48.70;28.90;;;;;;;5.96;66.02;93488.59;4870118;29;20025;-77
2023/12/07 00:18:43;;;;;;;52.83;28.98;;;;;;;5.92;65.64;93492.88;4888646;29;20136;-77
2023/12/07 00:21:09;;;;;;;52.60;29.40;;;;;;;5.88;66.25;93499.03;4869286;29;20040;-77
2023/12/07 00:23:34;;;;;;;45.00;28.33;;;;;;;5.88;65.89;93491.91;4874327;29;20040;-77
2023/12/07 00:26:00;;;;;;;47.05;27.45;;;;;;;5.83;66.04;93488.56;4867857;29;20031;-78
2023/12/07 00:28:26;;;;;;;51.50;29.20;;;;;;;5.77;66.37;93479.97;4874629;29;20536;-76
2023/12/07 00:30:52;;;;;;;46.20;27.60;;;;;;;5.90;66.12;93499.53;4874609;29;20039;-76
2023/12/07 00:33:25;;;;;;;63.45;37.22;;;;;;;5.90;66.19;93481.84;4869077;29;20127;-77
2023/12/07 00:35:50;;;;;;;53.33;32.35;;;;;;;5.91;65.74;93488.69;4875444;29;20162;-76
2023/12/07 00:38:16;;;;;;;52.85;32.78;;;;;;;5.91;65.52;93467.59;4871232;29;20713;-77
2023/12/07 00:40:41;;;;;;;52.75;32.67;;;;;;;5.90;65.52;93457.31;4878844;29;20674;-77
2023/12/07 00:43:07;;;;;;;48.08;29.38;;;;;;;6.12;65.13;93485.66;4860180;29;21004;-76
2023/12/07 00:45:33;;;;;;;51.83;29.10;;;;;;;5.88;66.01;93493.75;4878911;29;20068;-77
2023/12/07 00:48:00;;;;;;;44.35;26.63;;;;;;;5.72;66.35;93472.16;4877055;29;20092;-76
2023/12/07 00:50:30;;;;;;;50.22;29.52;;;;;;;5.77;66.39;93464.16;4873595;29;20559;-77
2023/12/07 00:52:55;;;;;;;39.85;25.27;;;;;;;5.39;66.02;93392.25;4878287;29;20040;-76
2023/12/07 00:55:21;;;;;;;47.78;26.63;;;;;;;5.93;65.88;93462.78;4874917;29;20632;-78
2023/12/07 00:57:47;;;;;;;43.58;27.10;;;;;;;5.99;66.07;93466.91;4886111;29;20764;-77
2023/12/07 01:00:13;;;;;;;45.40;27.65;;;;;;;6.09;66.01;93487.03;4872765;29;20079;-76
2023/12/07 01:02:38;;;;;;;45.72;26.60;;;;;;;5.97;65.76;93466.38;4872729;29;20036;-76
2023/12/07 01:05:05;;;;;;;41.30;25.23;;;;;;;5.99;65.66;93468.75;4876233;29;20041;-77
2023/12/07 01:07:31;;;;;;;45.83;26.38;;;;;;;6.06;65.95;93471.00;4872068;29;20556;-77
2023/12/07 01:09:56;;;;;;;48.13;28.67;;;;;;;6.05;65.75;93469.44;4877443;29;20040;-77
2023/12/07 01:12:22;;;;;;;39.40;25.25;;;;;;;6.04;65.52;93462.59;4869787;29;20749;-78
2023/12/07 01:14:50;;;;;;;43.40;26.63;;;;;;;5.76;65.69;93441.47;4876711;29;20036;-77
2023/12/07 01:17:15;;;;;;;48.40;27.52;;;;;;;5.86;65.87;93458.97;4874910;29;20797;-76
2023/12/07 01:19:41;;;;;;;45.47;25.20;;;;;;;5.81;65.93;93456.41;4873767;29;20402;-78
2023/12/07 01:22:07;;;;;;;43.60;26.15;;;;;;;5.99;65.57;93480.09;4874093;29;20044;-76
2023/12/07 01:24:32;;;;;;;46.53;26.13;;;;;;;5.87;65.77;93463.19;4872473;29;20523;-77
2023/12/07 01:26:58;;;;;;;43.47;26.73;;;;;;;5.99;65.77;93479.31;4872704;29;20079;-77
2023/12/07 01:29:24;;;;;;;42.20;26.98;;;;;;;5.85;65.83;93452.91;4870095;29;20401;-78
2023/12/07 01:31:49;;;;;;;43.33;25.42;;;;;;;5.77;65.76;93432.47;4875448;29;20473;-76
2023/12/07 01:34:16;;;;;;;40.13;25.63;;;;;;;5.94;65.75;93480.19;4875694;29;20667;-77
2023/12/07 01:36:42;;;;;;;43.80;26.02;;;;;;;5.85;65.76;93466.09;4873275;29;20040;-77
2023/12/07 01:39:11;;;;;;;43.65;25.30;;;;;;;5.93;65.79;93462.78;4873597;29;20043;-74
2023/12/07 01:41:36;;;;;;;42.00;24.48;;;;;;;5.91;65.80;93458.88;4885261;29;20040;-78
2023/12/07 01:44:01;;;;;;;35.25;22.77;;;;;;;5.89;65.60;93451.25;4882103;29;20028;-75
2023/12/07 01:46:27;;;;;;;37.60;21.70;;;;;;;6.00;65.55;93463.19;4868397;29;20032;-78
2023/12/07 01:48:53;;;;;;;39.28;22.98;;;;;;;5.97;65.29;93471.66;4876473;29;20040;-75
2023/12/07 01:51:20;;;;;;;35.78;22.35;;;;;;;5.74;65.78;93459.44;4875571;29;20126;-75
2023/12/07 01:53:48;;;;;;;40.28;23.90;;;;;;;5.60;66.57;93455.19;4868946;29;20039;-75
2023/12/07 01:56:14;;;;;;;38.50;22.15;;;;;;;5.67;66.59;93459.03;4876253;29;20033;-74
2023/12/07 01:58:39;;;;;;;38.67;23.05;;;;;;;5.75;66.54;93461.00;4876642;29;20420;-77
2023/12/07 02:01:06;;;;;;;40.13;23.15;;;;;;;5.69;66.50;93461.38;4873837;29;20155;-76
2023/12/07 02:03:32;;;;;;;35.97;22.08;;;;;;;5.83;66.53;93468.22;4874866;29;20043;-76
2023/12/07 02:05:58;;;;;;;41.00;24.05;;;;;;;5.84;66.70;93463.75;4867286;29;20040;-76
2023/12/07 02:08:23;;;;;;;39.15;24.95;;;;;;;5.93;66.28;93468.06;4876215;29;20044;-77
2023/12/07 02:10:49;;;;;;;40.35;24.85;;;;;;;5.86;65.70;93446.56;4867982;29;20567;-78
2023/12/07 02:13:15;;;;;;;39.28;25.38;;;;;;;5.81;65.71;93435.31;4876807;29;20065;-77
2023/12/07 02:15:50;;;;;;;39.20;23.73;;;;;;;6.00;65.70;93463.19;4874098;29;20592;-76
2023/12/07 02:18:51;;;;;;;35.38;22.75;;;;;;;5.96;65.60;93454.28;4871573;29;20092;-76
2023/12/07 02:21:55;;;;;;;34.88;21.25;;;;;;;6.05;65.89;93457.03;4860198;29;20734;-77
2023/12/07 02:24:22;;;;;;;37.03;22.27;;;;;;;5.99;65.59;93456.34;4868362;29;20074;-77
2023/12/07 02:26:49;;;;;;;31.73;20.83;;;;;;;5.89;65.88;93442.53;4871939;29;22429;-76
2023/12/07 02:29:15;;;;;;;33.67;21.30;;;;;;;5.95;66.17;93447.44;4872400;29;20350;-77
2023/12/07 02:31:40;;;;;;;36.35;22.52;;;;;;;5.98;65.80;93454.75;4868764;29;20067;-77
2023/12/07 02:34:06;;;;;;;35.92;22.42;;;;;;;5.85;66.02;93438.94;4873942;29;20417;-77
2023/12/07 02:36:34;;;;;;;35.97;20.35;;;;;;;6.02;65.91;93448.91;4869266;29;20675;-76
2023/12/07 02:39:03;;;;;;;33.20;21.15;;;;;;;5.96;65.84;93446.38;4874993;29;20028;-76
2023/12/07 02:41:31;;;;;;;32.15;19.70;;;;;;;5.87;66.09;93432.25;4871280;29;20040;-76
2023/12/07 02:43:57;;;;;;;31.77;19.98;;;;;;;5.86;66.08;93445.78;4879555;29;20492;-77
2023/12/07 02:46:26;;;;;;;35.50;22.83;;;;;;;5.79;66.21;93440.09;4874542;29;20039;-78
2023/12/07 02:48:52;;;;;;;37.00;21.48;;;;;;;5.78;66.15;93434.03;4879583;29;20115;-77
2023/12/07 02:51:17;;;;;;;36.45;22.55;;;;;;;5.90;66.00;93450.16;4878100;29;20036;-76
2023/12/07 02:53:44;;;;;;;34.00;22.83;;;;;;;5.83;65.77;93433.16;4875287;29;20048;-78
2023/12/07 02:56:09;;;;;;;38.95;25.35;;;;;;;5.86;65.91;93446.56;4893262;29;20068;-76
2023/12/07 02:58:35;;;;;;;40.63;25.05;;;;;;;5.88;66.29;93449.66;4880818;29;20115;-77
2023/12/07 03:01:00;;;;;;;42.38;26.13;;;;;;;5.88;66.37;93448.88;4884669;29;20055;-77
2023/12/07 03:03:26;;;;;;;37.42;23.30;;;;;;;5.87;66.32;93448.09;4878562;29;20319;-77
2023/12/07 03:05:51;;;;;;;34.97;21.65;;;;;;;5.72;66.54;93434.41;4870521;29;20620;-76
2023/12/07 03:08:17;;;;;;;39.33;25.50;;;;;;;5.63;66.65;93442.19;4893627;29;20068;-76
2023/12/07 03:10:47;;;;;;;34.55;22.83;;;;;;;5.69;67.09;93456.09;4869798;29;20581;-78
2023/12/07 03:13:12;;;;;;;42.35;25.02;;;;;;;5.54;67.51;93457.13;4878118;29;20103;-77
2023/12/07 03:15:38;;;;;;;39.97;25.67;;;;;;;5.44;67.71;93449.41;4878475;29;20329;-76
2023/12/07 03:18:03;;;;;;;39.63;22.90;;;;;;;5.55;68.09;93462.13;4869637;29;20127;-77
2023/12/07 03:20:29;;;;;;;33.95;23.25;;;;;;;5.70;67.54;93473.50;4878097;29;20095;-77
2023/12/07 03:22:54;;;;;;;34.83;23.17;;;;;;;5.63;67.66;93471.22;4872293;29;20163;-76
2023/12/07 03:25:19;;;;;;;40.35;23.33;;;;;;;5.72;67.91;93474.78;4880190;29;20024;-76
2023/12/07 03:27:45;;;;;;;40.33;24.38;;;;;;;5.70;67.11;93458.44;4874363;29;20048;-77
2023/12/07 03:30:11;;;;;;;39.35;24.95;;;;;;;5.78;66.97;93462.25;4877767;29;20044;-76
2023/12/07 03:32:37;;;;;;;35.72;22.67;;;;;;;5.89;66.50;93482.91;4878660;29;20044;-77
2023/12/07 03:35:03;;;;;;;36.58;22.98;;;;;;;5.72;67.01;93487.97;4873728;29;20086;-77
2023/12/07 03:37:28;;;;;;;33.78;22.08;;;;;;;5.75;66.93;93471.56;4880295;29;20029;-76
2023/12/07 03:39:54;;;;;;;37.15;22.95;;;;;;;5.91;66.80;93486.06;4872541;29;20902;-77
2023/12/07 03:42:19;;;;;;;35.35;21.23;;;;;;;5.99;65.66;93471.38;4879457;29;20511;-77
2023/12/07 03:44:45;;;;;;;31.70;20.58;;;;;;;5.93;65.56;93481.25;4873238;29;20480;-77
2023/12/07 03:47:11;;;;;;;36.67;23.00;;;;;;;5.86;66.24;93472.94;4878504;29;20108;-76
2023/12/07 03:49:38;;;;;;;31.90;20.45;;;;;;;5.91;65.70;93472.84;4876760;29;20400;-76
2023/12/07 03:52:04;;;;;;;28.65;18.52;;;;;;;5.96;65.70;93479.91;4873667;29;20163;-78
2023/12/07 03:54:30;;;;;;;26.40;18.90;;;;;;;5.96;65.37;93467.50;4878652;29;20530;-75
2023/12/07 03:56:55;;;;;;;28.08;18.75;;;;;;;5.90;65.59;93473.94;4875480;29;20045;-76
2023/12/07 03:59:21;;;;;;;32.05;19.75;;;;;;;5.88;65.40;93457.59;4868925;29;20682;-76
2023/12/07 04:01:46;;;;;;;29.60;19.58;;;;;;;5.79;65.10;93451.41;4892833;29;20053;-77
2023/12/07 04:04:11;;;;;;;29.58;19.50;;;;;;;5.60;66.45;93469.19;4869704;29;20044;-77
2023/12/07 04:06:37;;;;;;;24.58;17.83;;;;;;;5.59;66.14;93451.78;4879283;29;20048;-76
2023/12/07 04:09:05;;;;;;;22.33;15.13;;;;;;;5.75;65.84;93457.56;4869603;29;20263;-77
2023/12/07 04:11:31;;;;;;;29.60;17.27;;;;;;;5.76;65.28;93465.22;4876011;29;20053;-76
2023/12/07 04:13:56;;;;;;;25.98;15.30;;;;;;;5.08;65.64;93367.50;4878805;29;20037;-76
2023/12/07 04:16:22;;;;;;;26.48;16.67;;;;;;;5.71;65.43;93461.88;4870932;29;20538;-76
2023/12/07 04:18:48;;;;;;;27.00;18.50;;;;;;;5.61;65.50;93462.84;4878146;29;20090;-76
2023/12/07 04:21:14;;;;;;;23.48;17.13;;;;;;;5.61;66.30;93481.31;4868243;29;21890;-77
2023/12/07 04:23:39;;;;;;;22.50;15.38;;;;;;;5.40;66.75;93461.59;4877103;29;20064;-77
2023/12/07 04:26:06;;;;;;;24.98;16.35;;;;;;;5.63;66.45;93488.94;4869162;29;20123;-78
2023/12/07 04:28:31;;;;;;;22.30;15.68;;;;;;;5.48;65.99;93476.78;4874660;29;20044;-78
2023/12/07 04:31:01;;;;;;;25.75;16.27;;;;;;;5.53;66.27;93493.28;4878116;29;20060;-78
2023/12/07 04:33:31;;;;;;;31.52;18.00;;;;;;;5.56;66.16;93484.81;4874148;29;20167;-77
2023/12/07 04:35:57;;;;;;;31.80;18.67;;;;;;;5.49;66.11;93478.31;4879023;29;20071;-76
2023/12/07 04:38:22;;;;;;;27.00;17.75;;;;;;;5.69;66.21;93509.66;4869441;29;20076;-76
2023/12/07 04:40:48;;;;;;;26.20;17.70;;;;;;;5.78;66.21;93505.25;4876757;29;20128;-76
2023/12/07 04:43:13;;;;;;;28.27;16.90;;;;;;;5.79;65.77;93501.56;4870574;29;20040;-77
2023/12/07 04:45:39;;;;;;;23.83;15.23;;;;;;;5.55;65.51;93485.09;4878480;29;20493;-76
2023/12/07 04:48:07;;;;;;;26.20;17.80;;;;;;;5.68;66.01;93500.16;4875618;29;20603;-78
2023/12/07 04:50:33;;;;;;;23.63;15.55;;;;;;;5.71;65.92;93499.59;4875510;29;20051;-77
2023/12/07 04:52:58;;;;;;;29.25;15.20;;;;;;;5.71;65.67;93501.44;4876718;29;20029;-76
2023/12/07 04:55:26;;;;;;;22.83;16.52;;;;;;;5.63;65.96;93502.13;4871626;29;20028;-78
2023/12/07 04:57:52;;;;;;;29.85;20.17;;;;;;;5.59;66.00;93499.25;4877613;29;20115;-76
2023/12/07 05:00:18;;;;;;;33.38;19.75;;;;;;;5.72;66.18;93505.66;4872298;29;20488;-77
2023/12/07 05:02:43;;;;;;;34.95;21.58;;;;;;;5.83;65.81;93505.19;4870548;29;20151;-77
2023/12/07 05:05:09;;;;;;;32.28;19.45;;;;;;;5.86;65.53;93509.13;4877671;29;20537;-78
2023/12/07 05:07:34;;;;;;;28.70;17.38;;;;;;;5.72;65.55;93501.16;4867912;29;20476;-76
2023/12/07 05:09:59;;;;;;;22.40;15.48;;;;;;;5.66;66.11;93499.69;4878107;29;20079;-76
2023/12/07 05:12:32;;;;;;;24.25;16.17;;;;;;;5.71;66.25;93514.66;4868134;29;20036;-78
2023/12/07 05:14:57;;;;;;;21.73;14.13;;;;;;;5.49;67.17;93500.22;4888674;29;20040;-76
2023/12/07 05:17:33;;;;;;;21.35;15.55;;;;;;;5.21;67.63;93503.03;4870597;29;20597;-78
2023/12/07 05:19:58;;;;;;;27.08;16.90;;;;;;;5.18;68.33;93522.84;4875708;29;20431;-76
2023/12/07 05:22:24;;;;;;;21.90;14.80;;;;;;;5.25;68.20;93499.53;4890267;29;20028;-76
2023/12/07 05:24:50;;;;;;;20.10;13.73;;;;;;;5.54;67.38;93513.31;4866404;29;20037;-77
2023/12/07 05:27:15;;;;;;;20.85;14.93;;;;;;;5.73;66.47;93521.19;4878141;29;20040;-76
2023/12/07 05:29:41;;;;;;;22.05;14.50;;;;;;;5.72;66.06;93514.38;4869790;29;20333;-76
2023/12/07 05:32:06;;;;;;;22.88;14.82;;;;;;;5.57;66.33;93490.88;4877732;29;20040;-78
2023/12/07 05:34:35;;;;;;;20.65;13.40;;;;;;;5.51;66.53;93523.66;4871791;29;20441;-78
2023/12/07 05:37:00;;;;;;;22.50;14.52;;;;;;;5.35;66.77;93504.66;4872333;29;20028;-77
2023/12/07 05:39:26;;;;;;;23.20;13.88;;;;;;;5.53;66.47;93521.50;4870525;29;20726;-77
2023/12/07 05:41:51;;;;;;;23.80;14.80;;;;;;;5.57;66.99;93525.16;4882809;29;20032;-77
2023/12/07 05:44:21;;;;;;;24.83;16.67;;;;;;;5.62;66.28;93514.53;4874765;29;20047;-77
2023/12/07 05:46:47;;;;;;;21.75;14.32;;;;;;;5.86;65.59;93538.94;4867006;29;20226;-77
2023/12/07 05:49:12;;;;;;;25.08;16.42;;;;;;;5.82;65.61;93530.00;4872202;29;20156;-78
2023/12/07 05:51:38;;;;;;;30.95;20.63;;;;;;;5.82;65.64;93535.28;4882173;29;20060;-75
2023/12/07 05:54:04;;;;;;;28.67;20.63;;;;;;;5.78;65.63;93539.56;4867644;29;20028;-76
2023/12/07 05:56:31;;;;;;;28.27;18.55;;;;;;;5.82;66.02;93545.06;4879766;29;20056;-76
2023/12/07 05:58:56;;;;;;;20.20;14.05;;;;;;;5.64;66.35;93533.47;4867917;29;20096;-75
2023/12/07 06:01:24;;;;;;;23.45;12.70;;;;;;;5.64;66.43;93541.38;4872472;29;20387;-75
2023/12/07 06:04:02;;;;;;;18.00;11.52;;;;;;;5.67;66.74;93540.03;4872879;29;20508;-75
2023/12/07 06:06:27;;;;;;;18.65;12.55;;;;;;;5.69;66.86;93551.06;4886366;29;20068;-76
2023/12/07 06:09:05;;;;;;;16.95;11.90;;;;;;;5.65;66.58;93547.44;4872202;29;20159;-77
2023/12/07 06:11:31;;;;;;;19.15;12.57;;;;;;;5.48;67.29;93527.66;4873926;29;20050;-75
2023/12/07 06:13:58;;;;;;;18.98;12.82;;;;;;;5.59;67.30;93552.03;4867997;29;20020;-75
2023/12/07 06:16:26;;;;;;;20.40;14.23;;;;;;;5.66;67.17;93546.38;4868574;29;20068;-76
2023/12/07 06:18:52;;;;;;;20.65;14.73;;;;;;;5.78;66.80;93547.50;4875843;29;20134;-76
2023/12/07 06:21:18;;;;;;;22.42;13.18;;;;;;;5.80;66.29;93545.34;4878406;29;20175;-75
2023/12/07 06:23:46;;;;;;;18.20;13.25;;;;;;;5.72;66.42;93530.19;4876627;29;20175;-78
2023/12/07 06:26:13;;;;;;;25.90;18.98;;;;;;;5.87;66.23;93553.66;4860617;29;20037;-77
2023/12/07 06:28:39;;;;;;;27.80;19.00;;;;;;;5.94;65.73;93553.31;4879103;29;20031;-78
2023/12/07 06:31:09;;;;;;;29.92;21.35;;;;;;;6.04;65.64;93555.78;4892394;29;20045;-76
2023/12/07 06:33:35;;;;;;;25.90;17.95;;;;;;;5.97;65.49;93548.22;4885126;29;20040;-77
2023/12/07 06:36:03;;;;;;;26.52;18.10;;;;;;;5.97;65.82;93558.00;4877843;29;20045;-76
2023/12/07 06:38:28;;;;;;;26.67;18.48;;;;;;;5.87;65.98;93551.03;4867846;29;20075;-75
2023/12/07 06:40:54;;;;;;;30.17;21.30;;;;;;;5.90;66.27;93554.97;4875412;29;20028;-77
2023/12/07 06:43:19;;;;;;;26.00;16.40;;;;;;;5.98;66.13;93565.63;4864651;29;20423;-78
2023/12/07 06:45:45;;;;;;;21.75;14.82;;;;;;;6.05;65.26;93569.75;4872299;29;20629;-78
2023/12/07 06:48:11;;;;;;;21.95;14.18;;;;;;;5.88;65.58;93565.78;4868094;29;20167;-78
2023/12/07 06:50:37;;;;;;;22.75;15.60;;;;;;;5.78;66.24;93552.78;4874985;29;20760;-77
2023/12/07 06:53:02;;;;;;;25.92;16.02;;;;;;;5.96;65.78;93567.78;4873121;29;20179;-74
2023/12/07 06:55:28;;;;;;;27.48;16.08;;;;;;;6.07;65.68;93576.31;4868771;29;20491;-78
2023/12/07 06:57:54;;;;;;;24.02;16.10;;;;;;;6.13;66.00;93572.50;4879064;29;20036;-75
2023/12/07 07:00:20;;;;;;;35.08;22.58;;;;;;;6.05;65.66;93567.13;4862163;29;20075;-77
2023/12/07 07:02:45;;;;;;;32.47;21.48;;;;;;;6.06;66.46;93576.63;4878483;29;20044;-76
2023/12/07 07:05:11;;;;;;;31.92;20.65;;;;;;;6.05;66.42;93567.13;4883647;29;20041;-76
2023/12/07 07:07:37;;;;;;;24.80;17.48;;;;;;;5.97;65.94;93558.78;4868339;29;21499;-75
2023/12/07 07:10:12;;;;;;;22.33;14.27;;;;;;;6.00;66.30;93571.41;4876052;29;20048;-76
2023/12/07 07:12:37;;;;;;;22.55;15.32;;;;;;;5.99;66.13;93572.47;4865292;29;20682;-74
2023/12/07 07:15:04;;;;;;;23.08;15.52;;;;;;;6.00;66.28;93587.25;4860684;29;20525;-77
2023/12/07 07:17:29;;;;;;;26.75;16.70;;;;;;;6.00;66.40;93581.97;4869558;29;20044;-76
2023/12/07 07:19:55;;;;;;;23.58;14.48;;;;;;;5.83;66.31;93568.53;4873728;29;20556;-77
2023/12/07 07:22:21;;;;;;;24.70;16.25;;;;;;;5.75;66.67;93565.75;4885981;29;20040;-76
2023/12/07 07:24:47;;;;;;;20.70;12.82;;;;;;;5.90;66.64;93579.50;4869050;29;20127;-78
2023/12/07 07:27:13;;;;;;;19.27;14.02;;;;;;;5.85;66.68;93584.88;4888122;29;20601;-77
2023/12/07 07:29:38;;;;;;;22.67;15.05;;;;;;;5.76;66.67;93586.59;4873648;29;20369;-77
2023/12/07 07:32:04;;;;;;;22.33;14.50;;;;;;;5.67;67.18;93583.03;4879032;29;20234;-78
2023/12/07 07:34:30;;;;;;;25.05;15.95;;;;;;;5.64;66.68;93580.97;4873566;29;20532;-77
2023/12/07 07:36:55;;;;;;;24.83;17.02;;;;;;;5.55;67.48;93595.88;4879417;29;20048;-77
2023/12/07 07:39:21;;;;;;;24.42;15.55;;;;;;;5.38;68.55;93587.69;4878024;29;20036;-77
2023/12/07 07:41:46;;;;;;;17.17;12.40;;;;;;;5.35;67.85;93575.06;4872997;29;20076;-76
2023/12/07 07:44:12;;;;;;;18.48;12.25;;;;;;;5.50;67.93;93593.31;4876767;29;20037;-76
2023/12/07 07:46:37;;;;;;;15.73;11.55;;;;;;;5.37;68.00;93596.69;4873442;29;20284;-74
2023/12/07 07:49:03;;;;;;;18.40;10.45;;;;;;;4.25;68.69;93450.56;4872630;29;20049;-77
2023/12/07 07:51:30;;;;;;;15.88;11.60;;;;;;;5.23;68.62;93607.16;4865913;29;20151;-76
2023/12/07 07:53:56;;;;;;;18.05;11.40;;;;;;;4.91;68.98;93580.66;4862982;29;20112;-78
2023/12/07 07:56:22;;;;;;;16.88;10.68;;;;;;;4.86;68.70;93586.78;4867983;29;20048;-77
2023/12/07 07:58:50;;;;;;;18.08;11.07;;;;;;;5.06;69.10;93615.53;4864919;29;20590;-76
2023/12/07 08:01:16;;;;;;;19.02;13.68;;;;;;;5.01;69.73;93614.81;4871419;29;20084;-76
2023/12/07 08:03:44;;;;;;;23.05;12.90;;;;;;;4.77;70.81;93614.84;4865828;29;20216;-78
2023/12/07 08:06:09;;;;;;;19.70;13.32;;;;;;;4.75;70.79;93621.47;4855816;29;20337;-77
2023/12/07 08:08:35;;;;;;;19.08;12.45;;;;;;;4.88;70.99;93626.03;4882342;29;20097;-78
2023/12/07 08:11:01;;;;;;;18.58;11.77;;;;;;;4.75;70.95;93624.84;4858120;29;20032;-78
2023/12/07 08:13:27;;;;;;;18.98;11.13;;;;;;;4.57;71.40;93636.13;4866869;29;20032;-77
2023/12/07 08:15:54;;;;;;;14.50;11.13;;;;;;;4.44;72.04;93631.53;4873600;29;20044;-78
2023/12/07 08:18:19;;;;;;;15.82;11.68;;;;;;;4.40;71.72;93636.56;4868488;29;20039;-76
2023/12/07 08:20:46;;;;;;;13.52;9.07;;;;;;;4.49;71.38;93628.84;4863965;29;20040;-76
2023/12/07 08:23:12;;;;;;;10.45;7.70;;;;;;;4.26;71.04;93631.13;4862079;29;20156;-77
2023/12/07 08:25:42;;;;;;;10.95;7.30;;;;;;;4.19;71.03;93635.16;4883030;29;20344;-75
2023/12/07 08:28:09;;;;;;;13.27;7.95;;;;;;;3.79;72.73;93615.22;4860219;29;20435;-78
2023/12/07 08:30:35;;;;;;;10.60;7.47;;;;;;;3.78;72.29;93624.16;4867603;29;20713;-76
2023/12/07 08:33:01;;;;;;;12.10;8.98;;;;;;;3.68;73.05;93629.50;4872518;29;20564;-77
2023/12/07 08:35:26;;;;;;;13.60;10.00;;;;;;;3.87;73.05;93643.56;4865741;29;20052;-76
2023/12/07 08:37:59;;;;;;;11.65;7.68;;;;;;;3.80;73.15;93643.09;4863893;29;20147;-77
2023/12/07 08:40:24;;;;;;;15.15;8.43;;;;;;;3.63;73.61;93653.22;4862780;29;20025;-77
2023/12/07 08:42:50;;;;;;;9.55;6.72;;;;;;;3.63;72.61;93640.84;4865948;29;20088;-76
2023/12/07 08:45:16;;;;;;;8.30;6.20;;;;;;;3.46;73.22;93634.41;4860399;29;20225;-76
2023/12/07 08:47:42;;;;;;;10.60;6.40;;;;;;;3.40;73.28;93647.56;4867068;29;20079;-76
2023/12/07 08:50:07;;;;;;;7.82;6.25;;;;;;;3.63;73.33;93653.22;4864971;29;20079;-77
2023/12/07 08:52:33;;;;;;;18.02;7.30;;;;;;;3.76;72.58;93652.63;4872870;29;20029;-77
2023/12/07 08:54:59;;;;;;;9.63;7.18;;;;;;;3.62;72.94;93639.31;4867983;29;20054;-76
2023/12/07 08:57:25;;;;;;;8.65;6.45;;;;;;;3.65;73.17;93662.41;4859527;29;20104;-77
2023/12/07 08:59:51;;;;;;;7.90;5.45;;;;;;;3.77;72.66;93659.44;4870632;29;20051;-77
2023/12/07 09:02:17;;;;;;;6.10;4.90;;;;;;;3.58;71.98;93651.41;4856505;29;20044;-77
2023/12/07 09:04:42;;;;;;;5.35;4.38;;;;;;;3.37;72.28;93653.38;4882526;29;20075;-78
2023/12/07 09:07:09;;;;;;;6.10;5.28;;;;;;;3.43;73.06;93666.50;4861285;29;20507;-77
2023/12/07 09:09:35;;;;;;;8.07;5.53;;;;;;;3.55;72.59;93662.47;4859340;29;20052;-77
2023/12/07 09:12:01;;;;;;;6.88;5.35;;;;;;;3.38;72.14;93631.28;4864862;29;20550;-77
2023/12/07 09:14:26;;;;;;;6.30;4.78;;;;;;;3.53;71.06;93648.81;4857975;29;20522;-77
2023/12/07 09:16:52;;;;;;;6.22;5.20;;;;;;;3.23;71.47;93610.34;4869066;29;20032;-76
2023/12/07 09:19:17;;;;;;;4.40;3.83;;;;;;;3.51;71.12;93671.19;4872145;29;20105;-76
2023/12/07 09:21:43;;;;;;;7.07;5.15;;;;;;;3.47;71.76;93668.31;4865858;29;20079;-77
2023/12/07 09:24:09;;;;;;;9.75;6.55;;;;;;;3.35;71.15;93662.59;4879502;29;20033;-78
2023/12/07 09:26:34;;;;;;;12.43;7.50;;;;;;;3.28;72.57;93665.50;4856309;29;20052;-77
2023/12/07 09:29:00;;;;;;;7.00;5.13;;;;;;;3.24;72.43;93667.09;4866980;29;20631;-77
2023/12/07 09:31:27;;;;;;;5.60;3.78;;;;;;;3.13;71.32;93665.59;4858371;29;20036;-77
2023/12/07 09:33:53;;;;;;;3.03;2.63;;;;;;;3.04;71.16;93672.44;4864973;29;20037;-76
2023/12/07 09:36:21;;;;;;;3.00;2.63;;;;;;;3.00;72.18;93666.16;4860514;29;20040;-76
2023/12/07 09:38:46;;;;;;;4.57;3.97;;;;;;;3.14;71.78;93658.47;4865373;29;20040;-77
2023/12/07 09:41:23;;;;;;;4.00;3.45;;;;;;;3.08;72.54;93641.19;4874963;29;20044;-78
2023/12/07 09:43:49;;;;;;;3.95;3.15;;;;;;;2.79;71.96;93625.28;4863043;29;20028;-77
2023/12/07 09:46:16;;;;;;;4.88;3.92;;;;;;;2.87;71.88;93643.09;4864667;29;20576;-77
2023/12/07 09:48:44;;;;;;;3.22;2.58;;;;;;;3.05;72.18;93673.25;4858107;29;20458;-77
2023/12/07 09:51:11;;;;;;;2.67;2.20;;;;;;;2.94;71.54;93660.13;4862431;29;20147;-78
2023/12/07 09:53:57;;;;;;;5.35;3.72;;;;;;;2.95;71.68;93660.94;4866817;29;20415;-76
2023/12/07 09:56:22;;;;;;;2.90;2.45;;;;;;;3.26;70.02;93669.47;4865794;29;20131;-77
2023/12/07 09:58:59;;;;;;;2.33;2.08;;;;;;;2.95;69.98;93669.59;4861581;29;20787;-77
2023/12/07 10:01:31;;;;;;;2.90;2.40;;;;;;;3.02;70.84;93661.44;4860390;29;20494;-78
2023/12/07 10:04:19;;;;;;;2.47;2.00;;;;;;;2.87;70.98;93670.16;4860985;29;20056;-77
2023/12/07 10:06:49;;;;;;;1.83;1.73;;;;;;;2.78;70.23;93673.63;4859880;29;20161;-78
2023/12/07 10:09:18;;;;;;;1.70;1.60;;;;;;;2.77;71.32;93672.03;4869662;29;20156;-78
2023/12/07 10:11:44;;;;;;;3.38;3.08;;;;;;;2.40;71.25;93652.16;4883128;29;20080;-78
2023/12/07 10:14:17;;;;;;;3.25;2.50;;;;;;;2.51;70.84;93677.34;4873022;29;20043;-78
2023/12/07 10:16:56;;;;;;;2.65;2.45;;;;;;;2.44;71.57;93678.69;4886214;29;20248;-77
2023/12/07 10:19:24;;;;;;;2.35;1.98;;;;;;;2.45;71.27;93667.16;4874144;29;20041;-78
2023/12/07 10:21:51;;;;;;;2.10;1.90;;;;;;;2.37;71.28;93665.81;4871370;29;20055;-76
2023/12/07 10:24:20;;;;;;;2.50;2.30;;;;;;;2.50;71.51;93672.34;4870542;29;20048;-78
2023/12/07 10:26:47;;;;;;;4.45;3.25;;;;;;;2.40;72.28;93673.16;4874155;29;20243;-77
2023/12/07 10:29:12;;;;;;;6.15;4.28;;;;;;;2.18;72.36;93654.31;4870391;29;20052;-78
2023/12/07 10:31:38;;;;;;;25.65;15.73;;;;;;;2.27;72.72;93675.53;4875480;29;20863;-78
2023/12/07 10:34:07;;;;;;;8.10;5.10;;;;;;;2.29;72.89;93676.88;4871197;29;20606;-77
2023/12/07 10:36:33;;;;;;;6.97;4.68;;;;;;;2.37;72.43;93668.44;4858039;29;20045;-78
2023/12/07 10:38:58;;;;;;;4.95;2.83;;;;;;;2.28;72.53;93670.03;4865718;29;20127;-79
2023/12/07 10:41:25;;;;;;;2.80;2.50;;;;;;;2.35;72.39;93673.16;4859103;29;20044;-76
2023/12/07 10:44:01;;;;;;;2.60;2.40;;;;;;;2.22;71.86;93659.81;4865789;29;20485;-77
2023/12/07 10:46:29;;;;;;;3.00;2.55;;;;;;;2.11;72.45;93674.00;4872712;29;20316;-76
2023/12/07 10:49:01;;;;;;;3.78;2.60;;;;;;;1.94;73.14;93674.25;4864471;29;20032;-77
2023/12/07 10:51:37;;;;;;;3.67;2.78;;;;;;;2.14;72.38;93674.25;4863382;29;20576;-78
2023/12/07 10:54:04;;;;;;;3.78;3.03;;;;;;;2.12;72.07;93665.06;4872845;29;20052;-78
2023/12/07 10:56:41;;;;;;;3.88;3.58;;;;;;;2.03;72.90;93667.44;4866215;29;20055;-77
2023/12/07 10:59:19;;;;;;;4.72;4.22;;;;;;;2.20;72.22;93659.31;4874825;29;20115;-78
2023/12/07 11:01:46;;;;;;;8.98;7.28;;;;;;;2.02;72.19;93669.25;4887110;29;20078;-78
2023/12/07 11:04:13;;;;;;;4.93;4.38;;;;;;;2.04;72.00;93675.06;4872314;29;20088;-77
2023/12/07 11:06:41;;;;;;;4.05;3.60;;;;;;;2.07;71.45;93673.72;4873309;29;20508;-77
2023/12/07 11:09:15;;;;;;;2.03;1.83;;;;;;;2.03;70.80;93670.84;4877135;29;20040;-78
2023/12/07 11:11:52;;;;;;;3.72;2.50;;;;;;;1.98;71.41;93670.06;4878297;29;20079;-77
2023/12/07 11:14:19;;;;;;;3.60;2.58;;;;;;;1.89;71.88;93669.00;4873060;29;20066;-78
2023/12/07 11:16:58;;;;;;;2.15;1.90;;;;;;;1.77;72.01;93669.22;4878255;29;20032;-76
2023/12/07 11:19:32;;;;;;;1.50;1.40;;;;;;;1.79;71.55;93680.25;4875373;29;20060;-75
2023/12/07 11:22:01;;;;;;;2.47;2.28;;;;;;;1.60;72.27;93666.88;4874449;29;20033;-75
2023/12/07 11:24:27;;;;;;;2.15;2.00;;;;;;;1.43;73.01;93655.81;4874182;29;20383;-75
2023/12/07 11:27:01;;;;;;;3.80;3.33;;;;;;;1.76;72.62;93677.38;4877988;29;20151;-76
2023/12/07 11:29:31;;;;;;;2.22;2.00;;;;;;;1.57;72.41;93662.13;4873372;29;20052;-75